THUNDERSTORM

Not for real navigation. The accuracy of this data is not assured See disclaimer for more information



ICAO NAME COUNTRY WIND Kt GUST Kt VIS m TEMP/DEW C BARO METAR
KMTO MATTOON/CHARLESTON COLES CO IL United States 20 25 800 14/14 29.30 KMTO 181710Z AUTO 33020G25KT 0.5SM +TSRA FG BKN006 BKN021 OVC050 14/14 A2930 RMK AO2 PK WND 30030/17
PAPB ST. GEORGE AIRPORT AK United States 14 0 800 7/7 30.04 PAPB 181653Z AUTO 23014KT 0.5SM FG VV002 07/07 A3004 RMK AO2 SLP162 T00720072 TS
KFWA FORT WAYNE INTERNATIONAL IN United States 7 0 1200 12/11 29.30 KFWA 181654Z 11007KT 0.75SM +TSRA BR FEW004 BKN019CB OVC031 12/11 A2930 RMK AO2 LTG NOOP ALQDS SLP92
KOKK Kokomo, Kokomo Municipal Airpo IN United States 16 25 1600 12/12 29.25 KOKK 181713Z AUTO 34016G25KT 1 0.5SM +TSRA BR FEW004 BKN009 OVC012 12/12 A2925 RMK AO2 WSHFT 1659 LT
KGSH GOSHEN MUNICIPAL AIRPORT IN United States 11 0 1600 8/7 29.35 KGSH 181707Z AUTO 33011KT 1 0.5SM VCTS +RA BR SCT004 BKN011 OVC019 08/07 A2935 RMK AO2 LTG NOOP ALQD

Show more